sensor_id;sensor_type;location;lat;lon;timestamp;pressure;altitude;pressure_sealevel;temperature;humidity
30935;BME280;51033;42.648;23.292;2023-07-31T00:01:04;93567.25;;;22.09;55.71
30935;BME280;51033;42.648;23.292;2023-07-31T00:03:30;93568.81;;;22.03;57.80
30935;BME280;51033;42.648;23.292;2023-07-31T00:05:55;93560.28;;;22.01;56.88
30935;BME280;51033;42.648;23.292;2023-07-31T00:08:20;93571.13;;;22.01;57.13
30935;BME280;51033;42.648;23.292;2023-07-31T00:10:46;93577.72;;;22.04;57.29
30935;BME280;51033;42.648;23.292;2023-07-31T00:13:11;93563.44;;;21.71;57.37
30935;BME280;51033;42.648;23.292;2023-07-31T00:15:37;93561.50;;;21.72;57.19
30935;BME280;51033;42.648;23.292;2023-07-31T00:18:02;93575.44;;;21.24;56.98
30935;BME280;51033;42.648;23.292;2023-07-31T00:20:28;93559.59;;;21.01;57.64
30935;BME280;51033;42.648;23.292;2023-07-31T00:22:53;93554.94;;;21.09;57.92
30935;BME280;51033;42.648;23.292;2023-07-31T00:25:18;93548.78;;;21.05;58.44
30935;BME280;51033;42.648;23.292;2023-07-31T00:27:46;93558.81;;;21.15;58.20
30935;BME280;51033;42.648;23.292;2023-07-31T00:30:11;93545.69;;;21.24;57.98
30935;BME280;51033;42.648;23.292;2023-07-31T00:32:37;93537.19;;;21.33;57.69
30935;BME280;51033;42.648;23.292;2023-07-31T00:35:02;93529.81;;;21.37;57.74
30935;BME280;51033;42.648;23.292;2023-07-31T00:37:28;93530.22;;;21.35;56.78
30935;BME280;51033;42.648;23.292;2023-07-31T00:39:54;93531.00;;;21.43;56.89
30935;BME280;51033;42.648;23.292;2023-07-31T00:42:19;93524.44;;;21.16;58.19
30935;BME280;51033;42.648;23.292;2023-07-31T00:44:45;93535.25;;;21.19;57.94
30935;BME280;51033;42.648;23.292;2023-07-31T00:47:10;93525.59;;;21.18;58.32
30935;BME280;51033;42.648;23.292;2023-07-31T00:49:36;93531.00;;;21.11;58.46
30935;BME280;51033;42.648;23.292;2023-07-31T00:52:01;93526.72;;;20.82;59.41
30935;BME280;51033;42.648;23.292;2023-07-31T00:54:27;93554.84;;;20.59;60.97
30935;BME280;51033;42.648;23.292;2023-07-31T00:56:54;93547.91;;;20.69;60.43
30935;BME280;51033;42.648;23.292;2023-07-31T00:59:20;93528.13;;;20.30;61.56
30935;BME280;51033;42.648;23.292;2023-07-31T01:01:46;93532.75;;;20.29;62.54
30935;BME280;51033;42.648;23.292;2023-07-31T01:04:12;93532.72;;;20.22;62.75
30935;BME280;51033;42.648;23.292;2023-07-31T01:07:11;93523.09;;;20.21;62.44
30935;BME280;51033;42.648;23.292;2023-07-31T01:09:45;93532.38;;;20.27;62.67
30935;BME280;51033;42.648;23.292;2023-07-31T01:12:15;93533.38;;;20.05;64.06
30935;BME280;51033;42.648;23.292;2023-07-31T01:14:51;93531.31;;;19.73;64.93
30935;BME280;51033;42.648;23.292;2023-07-31T01:17:16;93524.44;;;19.80;65.20
30935;BME280;51033;42.648;23.292;2023-07-31T01:19:42;93504.28;;;19.66;65.29
30935;BME280;51033;42.648;23.292;2023-07-31T01:27:59;93518.13;;;19.54;65.66
30935;BME280;51033;42.648;23.292;2023-07-31T01:30:32;93529.72;;;19.65;65.90
30935;BME280;51033;42.648;23.292;2023-07-31T01:33:01;93510.19;;;19.28;67.25
30935;BME280;51033;42.648;23.292;2023-07-31T01:35:34;93509.81;;;19.26;67.62
30935;BME280;51033;42.648;23.292;2023-07-31T01:38:00;93522.13;;;19.27;67.74
30935;BME280;51033;42.648;23.292;2023-07-31T01:40:25;93524.78;;;19.20;68.41
30935;BME280;51033;42.648;23.292;2023-07-31T01:42:51;93519.03;;;19.25;68.08
30935;BME280;51033;42.648;23.292;2023-07-31T01:45:16;93530.28;;;19.34;68.41
30935;BME280;51033;42.648;23.292;2023-07-31T01:47:41;93529.34;;;19.12;69.29
30935;BME280;51033;42.648;23.292;2023-07-31T01:50:07;93516.63;;;19.09;69.63
30935;BME280;51033;42.648;23.292;2023-07-31T01:52:33;93508.53;;;19.13;69.21
30935;BME280;51033;42.648;23.292;2023-07-31T01:54:58;93527.47;;;19.20;69.00
30935;BME280;51033;42.648;23.292;2023-07-31T01:57:23;93518.94;;;19.11;69.27
30935;BME280;51033;42.648;23.292;2023-07-31T01:59:49;93517.06;;;19.22;68.96
30935;BME280;51033;42.648;23.292;2023-07-31T02:02:15;93504.84;;;18.84;69.92
30935;BME280;51033;42.648;23.292;2023-07-31T02:04:41;93517.06;;;19.18;69.19
30935;BME280;51033;42.648;23.292;2023-07-31T02:07:06;93491.53;;;19.02;69.17
30935;BME280;51033;42.648;23.292;2023-07-31T02:09:32;93531.19;;;19.49;68.31
30935;BME280;51033;42.648;23.292;2023-07-31T02:11:57;93531.94;;;19.49;68.28
30935;BME280;51033;42.648;23.292;2023-07-31T02:14:22;93516.47;;;19.43;68.17
30935;BME280;51033;42.648;23.292;2023-07-31T02:16:48;93528.84;;;19.51;67.88
30935;BME280;51033;42.648;23.292;2023-07-31T02:19:13;93509.97;;;19.47;67.93
30935;BME280;51033;42.648;23.292;2023-07-31T02:21:38;93534.38;;;19.72;67.51
30935;BME280;51033;42.648;23.292;2023-07-31T02:24:04;93533.19;;;19.62;67.97
30935;BME280;51033;42.648;23.292;2023-07-31T02:26:29;93521.66;;;19.69;67.58
30935;BME280;51033;42.648;23.292;2023-07-31T02:28:55;93527.88;;;19.77;67.06
30935;BME280;51033;42.648;23.292;2023-07-31T02:31:20;93529.00;;;19.72;66.98
30935;BME280;51033;42.648;23.292;2023-07-31T02:33:46;93535.13;;;19.65;67.26
30935;BME280;51033;42.648;23.292;2023-07-31T02:36:11;93535.16;;;19.72;66.72
30935;BME280;51033;42.648;23.292;2023-07-31T02:38:36;93519.75;;;19.69;66.61
30935;BME280;51033;42.648;23.292;2023-07-31T02:41:02;93518.47;;;19.49;67.17
30935;BME280;51033;42.648;23.292;2023-07-31T02:43:27;93532.03;;;19.63;66.64
30935;BME280;51033;42.648;23.292;2023-07-31T02:45:52;93535.09;;;19.62;66.63
30935;BME280;51033;42.648;23.292;2023-07-31T02:48:18;93533.50;;;19.50;66.79
30935;BME280;51033;42.648;23.292;2023-07-31T02:50:45;93539.66;;;19.51;67.14
30935;BME280;51033;42.648;23.292;2023-07-31T02:53:10;93553.34;;;19.28;68.05
30935;BME280;51033;42.648;23.292;2023-07-31T02:55:35;93553.53;;;19.49;67.70
30935;BME280;51033;42.648;23.292;2023-07-31T02:58:01;93568.34;;;19.25;68.12
30935;BME280;51033;42.648;23.292;2023-07-31T03:00:26;93568.66;;;19.17;68.59
30935;BME280;51033;42.648;23.292;2023-07-31T03:02:52;93550.88;;;19.09;68.77
30935;BME280;51033;42.648;23.292;2023-07-31T03:05:17;93561.41;;;19.24;68.47
30935;BME280;51033;42.648;23.292;2023-07-31T03:07:42;93559.47;;;19.25;68.48
30935;BME280;51033;42.648;23.292;2023-07-31T03:10:08;93567.59;;;19.28;68.66
30935;BME280;51033;42.648;23.292;2023-07-31T03:12:33;93551.44;;;19.32;68.16
30935;BME280;51033;42.648;23.292;2023-07-31T03:14:59;93560.28;;;19.29;68.48
30935;BME280;51033;42.648;23.292;2023-07-31T03:17:24;93566.59;;;19.47;67.91
30935;BME280;51033;42.648;23.292;2023-07-31T03:19:49;93551.97;;;19.48;66.96
30935;BME280;51033;42.648;23.292;2023-07-31T03:22:15;93569.41;;;19.61;66.88
30935;BME280;51033;42.648;23.292;2023-07-31T03:24:40;93567.88;;;19.64;66.45
30935;BME280;51033;42.648;23.292;2023-07-31T03:27:06;93561.00;;;19.73;66.08
30935;BME280;51033;42.648;23.292;2023-07-31T03:29:31;93578.91;;;20.03;65.75
30935;BME280;51033;42.648;23.292;2023-07-31T03:31:56;93580.06;;;20.02;65.33
30935;BME280;51033;42.648;23.292;2023-07-31T03:34:22;93563.84;;;20.02;64.97
30935;BME280;51033;42.648;23.292;2023-07-31T03:36:47;93583.25;;;20.18;64.63
30935;BME280;51033;42.648;23.292;2023-07-31T03:39:13;93582.47;;;20.17;64.23
30935;BME280;51033;42.648;23.292;2023-07-31T03:41:38;93589.34;;;20.08;64.73
30935;BME280;51033;42.648;23.292;2023-07-31T03:44:03;93572.75;;;20.06;64.56
30935;BME280;51033;42.648;23.292;2023-07-31T03:46:29;93591.78;;;20.27;64.04
30935;BME280;51033;42.648;23.292;2023-07-31T03:48:54;93593.69;;;20.27;63.79
30935;BME280;51033;42.648;23.292;2023-07-31T03:51:20;93587.16;;;20.28;63.27
30935;BME280;51033;42.648;23.292;2023-07-31T03:53:45;93596.81;;;20.32;63.57
30935;BME280;51033;42.648;23.292;2023-07-31T03:56:11;93604.16;;;20.39;63.59
30935;BME280;51033;42.648;23.292;2023-07-31T03:58:36;93584.81;;;20.26;63.22
30935;BME280;51033;42.648;23.292;2023-07-31T04:01:02;93599.88;;;20.34;63.30
30935;BME280;51033;42.648;23.292;2023-07-31T04:03:28;93599.00;;;20.09;63.96
30935;BME280;51033;42.648;23.292;2023-07-31T04:05:54;93597.91;;;20.17;64.27
30935;BME280;51033;42.648;23.292;2023-07-31T04:08:21;93597.84;;;20.13;64.06
30935;BME280;51033;42.648;23.292;2023-07-31T04:10:47;93597.81;;;20.06;64.14
30935;BME280;51033;42.648;23.292;2023-07-31T04:13:12;93611.41;;;20.24;63.57
30935;BME280;51033;42.648;23.292;2023-07-31T04:15:38;93604.50;;;20.27;63.30
30935;BME280;51033;42.648;23.292;2023-07-31T04:18:04;93601.38;;;20.21;63.19
30935;BME280;51033;42.648;23.292;2023-07-31T04:20:30;93607.97;;;20.27;63.12
30935;BME280;51033;42.648;23.292;2023-07-31T04:22:55;93604.13;;;20.28;63.01
30935;BME280;51033;42.648;23.292;2023-07-31T04:25:21;93605.91;;;20.03;63.79
30935;BME280;51033;42.648;23.292;2023-07-31T04:27:46;93618.28;;;20.11;63.57
30935;BME280;51033;42.648;23.292;2023-07-31T04:30:12;93613.59;;;20.04;63.14
30935;BME280;51033;42.648;23.292;2023-07-31T04:32:37;93614.69;;;19.93;63.85
30935;BME280;51033;42.648;23.292;2023-07-31T04:35:03;93601.94;;;19.90;63.78
30935;BME280;51033;42.648;23.292;2023-07-31T04:37:28;93608.44;;;19.74;63.82
30935;BME280;51033;42.648;23.292;2023-07-31T04:39:54;93615.47;;;19.93;63.94
30935;BME280;51033;42.648;23.292;2023-07-31T04:42:20;93610.09;;;19.97;63.03
30935;BME280;51033;42.648;23.292;2023-07-31T04:44:45;93601.56;;;19.84;63.45
30935;BME280;51033;42.648;23.292;2023-07-31T04:47:10;93598.00;;;19.77;63.17
30935;BME280;51033;42.648;23.292;2023-07-31T04:49:36;93593.03;;;19.79;63.52
30935;BME280;51033;42.648;23.292;2023-07-31T04:52:02;93601.56;;;19.88;63.81
30935;BME280;51033;42.648;23.292;2023-07-31T04:54:27;93606.28;;;20.05;62.79
30935;BME280;51033;42.648;23.292;2023-07-31T04:56:52;93613.56;;;19.94;63.00
30935;BME280;51033;42.648;23.292;2023-07-31T04:59:18;93613.56;;;19.94;63.30
30935;BME280;51033;42.648;23.292;2023-07-31T05:01:43;93596.09;;;19.73;63.89
30935;BME280;51033;42.648;23.292;2023-07-31T05:04:12;93592.69;;;19.84;63.68
30935;BME280;51033;42.648;23.292;2023-07-31T05:06:38;93600.88;;;20.05;64.03
30935;BME280;51033;42.648;23.292;2023-07-31T05:09:04;93602.38;;;19.95;62.98
30935;BME280;51033;42.648;23.292;2023-07-31T05:11:29;93606.59;;;19.93;63.28
30935;BME280;51033;42.648;23.292;2023-07-31T05:13:54;93597.78;;;20.03;64.11
30935;BME280;51033;42.648;23.292;2023-07-31T05:16:20;93583.81;;;19.87;62.74
30935;BME280;51033;42.648;23.292;2023-07-31T05:18:45;93601.94;;;19.90;62.96
30935;BME280;51033;42.648;23.292;2023-07-31T05:21:10;93604.94;;;19.74;63.08
30935;BME280;51033;42.648;23.292;2023-07-31T05:23:36;93602.69;;;19.80;63.63
30935;BME280;51033;42.648;23.292;2023-07-31T05:26:05;93607.81;;;19.99;63.49
30935;BME280;51033;42.648;23.292;2023-07-31T05:28:30;93588.56;;;20.11;62.64
30935;BME280;51033;42.648;23.292;2023-07-31T05:31:00;93594.69;;;20.01;62.45
30935;BME280;51033;42.648;23.292;2023-07-31T05:33:26;93591.56;;;19.95;62.53
30935;BME280;51033;42.648;23.292;2023-07-31T05:35:52;93612.13;;;20.14;62.95
30935;BME280;51033;42.648;23.292;2023-07-31T05:38:18;93604.88;;;20.25;62.35
30935;BME280;51033;42.648;23.292;2023-07-31T05:40:43;93597.81;;;20.10;62.19
30935;BME280;51033;42.648;23.292;2023-07-31T05:43:08;93610.59;;;20.13;62.83
30935;BME280;51033;42.648;23.292;2023-07-31T05:45:34;93601.28;;;20.07;62.72
30935;BME280;51033;42.648;23.292;2023-07-31T05:48:00;93602.16;;;20.22;62.67
30935;BME280;51033;42.648;23.292;2023-07-31T05:50:25;93603.38;;;20.31;62.57
30935;BME280;51033;42.648;23.292;2023-07-31T05:52:51;93589.44;;;20.29;61.67
30935;BME280;51033;42.648;23.292;2023-07-31T05:55:17;93592.97;;;20.33;60.52
30935;BME280;51033;42.648;23.292;2023-07-31T05:57:42;93608.81;;;20.45;60.81
30935;BME280;51033;42.648;23.292;2023-07-31T06:00:08;93602.63;;;20.38;59.76
30935;BME280;51033;42.648;23.292;2023-07-31T06:02:34;93609.59;;;20.46;58.70
30935;BME280;51033;42.648;23.292;2023-07-31T06:05:02;93615.78;;;20.46;59.31
30935;BME280;51033;42.648;23.292;2023-07-31T06:07:29;93608.81;;;20.49;59.60
30935;BME280;51033;42.648;23.292;2023-07-31T06:09:55;93610.06;;;20.62;58.97
30935;BME280;51033;42.648;23.292;2023-07-31T06:12:20;93585.28;;;20.42;59.26
30935;BME280;51033;42.648;23.292;2023-07-31T06:14:46;93612.34;;;20.53;59.83
30935;BME280;51033;42.648;23.292;2023-07-31T06:17:11;93619.63;;;20.49;58.50
30935;BME280;51033;42.648;23.292;2023-07-31T06:19:36;93620.81;;;20.51;57.18
30935;BME280;51033;42.648;23.292;2023-07-31T06:22:02;93616.59;;;20.57;57.27
30935;BME280;51033;42.648;23.292;2023-07-31T06:24:28;93621.19;;;20.53;56.81
30935;BME280;51033;42.648;23.292;2023-07-31T06:26:53;93612.72;;;20.58;58.08
30935;BME280;51033;42.648;23.292;2023-07-31T06:29:19;93616.56;;;20.54;56.42
30935;BME280;51033;42.648;23.292;2023-07-31T06:31:44;93613.44;;;20.38;56.29
30935;BME280;51033;42.648;23.292;2023-07-31T06:34:10;93602.88;;;20.15;55.44
30935;BME280;51033;42.648;23.292;2023-07-31T06:36:35;93581.56;;;19.96;55.33
30935;BME280;51033;42.648;23.292;2023-07-31T06:39:00;93621.47;;;20.24;54.58
30935;BME280;51033;42.648;23.292;2023-07-31T06:41:26;93611.09;;;20.36;55.84
30935;BME280;51033;42.648;23.292;2023-07-31T06:43:51;93602.28;;;20.53;55.83
30935;BME280;51033;42.648;23.292;2023-07-31T06:46:17;93616.59;;;20.68;54.72
30935;BME280;51033;42.648;23.292;2023-07-31T06:48:42;93614.22;;;20.42;54.07
30935;BME280;51033;42.648;23.292;2023-07-31T06:51:07;93624.25;;;20.48;55.00
30935;BME280;51033;42.648;23.292;2023-07-31T06:53:33;93617.28;;;20.44;55.12
30935;BME280;51033;42.648;23.292;2023-07-31T06:55:58;93619.59;;;20.38;55.52
30935;BME280;51033;42.648;23.292;2023-07-31T06:58:23;93605.63;;;20.22;56.04
30935;BME280;51033;42.648;23.292;2023-07-31T07:00:49;93620.75;;;20.37;55.52
30935;BME280;51033;42.648;23.292;2023-07-31T07:03:18;93625.69;;;20.21;56.79
30935;BME280;51033;42.648;23.292;2023-07-31T07:05:43;93595.53;;;20.12;56.66
30935;BME280;51033;42.648;23.292;2023-07-31T07:08:09;93612.50;;;20.16;55.74
30935;BME280;51033;42.648;23.292;2023-07-31T07:10:34;93611.88;;;20.33;55.38
30935;BME280;51033;42.648;23.292;2023-07-31T07:13:00;93601.91;;;20.48;55.59
30935;BME280;51033;42.648;23.292;2023-07-31T07:15:25;93613.47;;;20.52;54.62
30935;BME280;51033;42.648;23.292;2023-07-31T07:17:51;93616.09;;;20.34;53.90
30935;BME280;51033;42.648;23.292;2023-07-31T07:20:16;93621.13;;;20.32;53.56
30935;BME280;51033;42.648;23.292;2023-07-31T07:22:44;93614.09;;;20.21;54.99
30935;BME280;51033;42.648;23.292;2023-07-31T07:25:11;93620.97;;;20.11;54.63
30935;BME280;51033;42.648;23.292;2023-07-31T07:27:37;93622.19;;;20.17;55.02
30935;BME280;51033;42.648;23.292;2023-07-31T07:30:05;93607.97;;;20.27;54.04
30935;BME280;51033;42.648;23.292;2023-07-31T07:32:31;93595.94;;;20.14;53.80
30935;BME280;51033;42.648;23.292;2023-07-31T07:34:56;93607.84;;;20.09;54.68
30935;BME280;51033;42.648;23.292;2023-07-31T07:37:27;93609.38;;;20.07;54.31
30935;BME280;51033;42.648;23.292;2023-07-31T07:39:52;93621.84;;;20.22;54.95
30935;BME280;51033;42.648;23.292;2023-07-31T07:42:18;93613.41;;;20.34;53.61
30935;BME280;51033;42.648;23.292;2023-07-31T07:44:43;93607.22;;;20.30;53.90
30935;BME280;51033;42.648;23.292;2023-07-31T07:47:09;93628.09;;;20.37;53.78
30935;BME280;51033;42.648;23.292;2023-07-31T07:49:36;93612.59;;;20.27;54.24
30935;BME280;51033;42.648;23.292;2023-07-31T07:52:02;93628.13;;;20.47;53.89
30935;BME280;51033;42.648;23.292;2023-07-31T07:54:28;93627.72;;;20.45;53.74
30935;BME280;51033;42.648;23.292;2023-07-31T07:56:53;93629.66;;;20.48;53.83
30935;BME280;51033;42.648;23.292;2023-07-31T07:59:18;93627.00;;;20.59;54.77
30935;BME280;51033;42.648;23.292;2023-07-31T08:01:44;93639.78;;;20.66;53.42
30935;BME280;51033;42.648;23.292;2023-07-31T08:04:09;93646.38;;;20.72;53.85
30935;BME280;51033;42.648;23.292;2023-07-31T08:06:34;93603.88;;;20.58;54.52
30935;BME280;51033;42.648;23.292;2023-07-31T08:09:00;93638.31;;;20.82;53.23
30935;BME280;51033;42.648;23.292;2023-07-31T08:11:30;93637.84;;;20.73;52.56
30935;BME280;51033;42.648;23.292;2023-07-31T08:13:56;93623.19;;;20.78;52.26
30935;BME280;51033;42.648;23.292;2023-07-31T08:16:21;93617.50;;;20.93;53.07
30935;BME280;51033;42.648;23.292;2023-07-31T08:18:47;93624.84;;;21.00;52.27
30935;BME280;51033;42.648;23.292;2023-07-31T08:21:14;93629.06;;;20.97;51.82
30935;BME280;51033;42.648;23.292;2023-07-31T08:23:41;93629.84;;;20.94;51.01
30935;BME280;51033;42.648;23.292;2023-07-31T08:26:06;93626.41;;;21.01;52.20
30935;BME280;51033;42.648;23.292;2023-07-31T08:28:32;93605.16;;;20.96;51.30
30935;BME280;51033;42.648;23.292;2023-07-31T08:30:57;93628.34;;;21.22;50.64
30935;BME280;51033;42.648;23.292;2023-07-31T08:33:23;93637.63;;;21.24;50.39
30935;BME280;51033;42.648;23.292;2023-07-31T08:35:48;93636.50;;;21.39;50.55
30935;BME280;51033;42.648;23.292;2023-07-31T08:38:14;93624.16;;;21.45;49.98
30935;BME280;51033;42.648;23.292;2023-07-31T08:40:39;93625.69;;;21.50;49.16
30935;BME280;51033;42.648;23.292;2023-07-31T08:43:05;93623.75;;;21.61;50.49
30935;BME280;51033;42.648;23.292;2023-07-31T08:45:30;93621.44;;;21.81;49.13
30935;BME280;51033;42.648;23.292;2023-07-31T08:47:58;93631.47;;;22.09;48.56
30935;BME280;51033;42.648;23.292;2023-07-31T08:50:25;93621.41;;;22.09;47.63
30935;BME280;51033;42.648;23.292;2023-07-31T08:52:51;93614.44;;;22.08;47.24
30935;BME280;51033;42.648;23.292;2023-07-31T08:55:18;93619.47;;;22.03;47.79
30935;BME280;51033;42.648;23.292;2023-07-31T08:57:49;93630.28;;;22.06;47.70
30935;BME280;51033;42.648;23.292;2023-07-31T09:00:15;93633.03;;;22.03;47.33
30935;BME280;51033;42.648;23.292;2023-07-31T09:02:59;93638.41;;;22.06;47.24
30935;BME280;51033;42.648;23.292;2023-07-31T09:05:26;93628.34;;;22.17;47.13
30935;BME280;51033;42.648;23.292;2023-07-31T09:07:53;93615.59;;;22.21;46.39
30935;BME280;51033;42.648;23.292;2023-07-31T09:10:20;93622.94;;;22.17;46.07
30935;BME280;51033;42.648;23.292;2023-07-31T09:12:45;93613.28;;;22.06;47.24
30935;BME280;51033;42.648;23.292;2023-07-31T09:15:11;93621.00;;;22.14;46.82
30935;BME280;51033;42.648;23.292;2023-07-31T09:17:37;93623.31;;;22.12;46.60
30935;BME280;51033;42.648;23.292;2023-07-31T09:20:20;93626.03;;;22.23;46.96
30935;BME280;51033;42.648;23.292;2023-07-31T09:22:46;93613.28;;;22.23;46.80
30935;BME280;51033;42.648;23.292;2023-07-31T09:30:16;93601.25;;;22.39;46.70
30935;BME280;51033;42.648;23.292;2023-07-31T09:32:43;93600.06;;;22.43;46.29
30935;BME280;51033;42.648;23.292;2023-07-31T09:35:29;93605.06;;;22.48;46.52
30935;BME280;51033;42.648;23.292;2023-07-31T09:37:59;93601.88;;;22.64;46.14
30935;BME280;51033;42.648;23.292;2023-07-31T09:40:26;93605.06;;;22.45;45.87
30935;BME280;51033;42.648;23.292;2023-07-31T09:42:53;93600.00;;;22.54;46.17
30935;BME280;51033;42.648;23.292;2023-07-31T09:45:19;93593.41;;;22.55;45.87
30935;BME280;51033;42.648;23.292;2023-07-31T09:47:48;93597.25;;;22.68;45.83
30935;BME280;51033;42.648;23.292;2023-07-31T09:50:14;93584.03;;;22.77;46.49
30935;BME280;51033;42.648;23.292;2023-07-31T09:52:40;93579.34;;;22.81;45.87
30935;BME280;51033;42.648;23.292;2023-07-31T09:55:06;93580.56;;;22.73;45.54
30935;BME280;51033;42.648;23.292;2023-07-31T09:57:32;93591.41;;;22.69;45.32
30935;BME280;51033;42.648;23.292;2023-07-31T09:59:58;93574.75;;;22.71;45.21
30935;BME280;51033;42.648;23.292;2023-07-31T10:02:24;93575.09;;;22.80;46.07
30935;BME280;51033;42.648;23.292;2023-07-31T10:04:51;93573.84;;;22.99;45.80
30935;BME280;51033;42.648;23.292;2023-07-31T10:07:22;93576.41;;;23.20;44.33
30935;BME280;51033;42.648;23.292;2023-07-31T10:09:51;93592.34;;;23.14;44.82
30935;BME280;51033;42.648;23.292;2023-07-31T10:12:19;93581.19;;;23.02;44.09
30935;BME280;51033;42.648;23.292;2023-07-31T10:14:47;93588.63;;;22.91;44.17
30935;BME280;51033;42.648;23.292;2023-07-31T10:17:13;93585.47;;;22.99;45.07
30935;BME280;51033;42.648;23.292;2023-07-31T10:19:40;93574.16;;;23.11;44.92
30935;BME280;51033;42.648;23.292;2023-07-31T10:22:07;93570.59;;;23.22;43.63
30935;BME280;51033;42.648;23.292;2023-07-31T10:24:34;93582.28;;;23.15;43.55
30935;BME280;51033;42.648;23.292;2023-07-31T10:27:01;93580.69;;;23.17;42.96
30935;BME280;51033;42.648;23.292;2023-07-31T10:29:29;93572.94;;;23.20;42.85
30935;BME280;51033;42.648;23.292;2023-07-31T10:31:56;93575.63;;;23.23;43.42
30935;BME280;51033;42.648;23.292;2023-07-31T10:34:23;93570.19;;;23.27;41.98
30935;BME280;51033;42.648;23.292;2023-07-31T10:36:49;93559.06;;;23.10;41.45
30935;BME280;51033;42.648;23.292;2023-07-31T10:39:36;93542.47;;;23.01;42.55
30935;BME280;51033;42.648;23.292;2023-07-31T10:42:16;93574.06;;;23.26;42.52
30935;BME280;51033;42.648;23.292;2023-07-31T10:44:46;93574.44;;;23.24;41.97
30935;BME280;51033;42.648;23.292;2023-07-31T10:47:14;93558.22;;;23.21;41.21
30935;BME280;51033;42.648;23.292;2023-07-31T10:49:44;93548.78;;;23.36;41.89
30935;BME280;51033;42.648;23.292;2023-07-31T10:52:13;93545.69;;;23.34;41.18
30935;BME280;51033;42.648;23.292;2023-07-31T10:54:40;93565.00;;;23.43;41.52
30935;BME280;51033;42.648;23.292;2023-07-31T10:57:21;93561.84;;;23.48;40.95
30935;BME280;51033;42.648;23.292;2023-07-31T10:59:47;93549.91;;;23.38;40.78
30935;BME280;51033;42.648;23.292;2023-07-31T11:02:26;93553.41;;;23.39;40.23
30935;BME280;51033;42.648;23.292;2023-07-31T11:05:09;93537.25;;;23.25;39.88
30935;BME280;51033;42.648;23.292;2023-07-31T11:07:50;93542.25;;;23.30;40.32
30935;BME280;51033;42.648;23.292;2023-07-31T11:10:17;93552.97;;;23.44;39.67
30935;BME280;51033;42.648;23.292;2023-07-31T11:12:45;93540.22;;;23.41;40.15
30935;BME280;51033;42.648;23.292;2023-07-31T11:15:10;93544.75;;;23.58;39.16
30935;BME280;51033;42.648;23.292;2023-07-31T11:17:39;93533.88;;;23.58;39.50
30935;BME280;51033;42.648;23.292;2023-07-31T11:20:06;93548.53;;;23.68;39.35
30935;BME280;51033;42.648;23.292;2023-07-31T11:22:34;93537.31;;;23.62;38.56
30935;BME280;51033;42.648;23.292;2023-07-31T11:24:59;93549.16;;;23.82;38.81
30935;BME280;51033;42.648;23.292;2023-07-31T11:27:27;93536.88;;;23.67;38.54
30935;BME280;51033;42.648;23.292;2023-07-31T11:30:00;93537.63;;;23.71;39.29
30935;BME280;51033;42.648;23.292;2023-07-31T11:32:25;93543.66;;;23.89;39.28
30935;BME280;51033;42.648;23.292;2023-07-31T11:34:55;93545.06;;;24.01;39.68
30935;BME280;51033;42.648;23.292;2023-07-31T11:37:20;93538.97;;;23.93;38.34
30935;BME280;51033;42.648;23.292;2023-07-31T11:40:01;93531.31;;;23.81;38.86
30935;BME280;51033;42.648;23.292;2023-07-31T11:42:26;93542.94;;;23.85;38.80
30935;BME280;51033;42.648;23.292;2023-07-31T11:44:52;93545.13;;;23.97;39.01
30935;BME280;51033;42.648;23.292;2023-07-31T11:47:17;93538.53;;;23.98;38.71
30935;BME280;51033;42.648;23.292;2023-07-31T11:49:43;93536.50;;;24.06;39.90
30935;BME280;51033;42.648;23.292;2023-07-31T11:52:09;93534.09;;;24.15;40.95
30935;BME280;51033;42.648;23.292;2023-07-31T11:54:36;93519.31;;;24.20;40.54
30935;BME280;51033;42.648;23.292;2023-07-31T11:57:02;93528.50;;;24.29;39.95
30935;BME280;51033;42.648;23.292;2023-07-31T11:59:28;93525.59;;;24.13;39.00
30935;BME280;51033;42.648;23.292;2023-07-31T12:01:54;93535.59;;;24.20;37.92
30935;BME280;51033;42.648;23.292;2023-07-31T12:04:20;93538.59;;;24.29;39.61
30935;BME280;51033;42.648;23.292;2023-07-31T12:06:52;93531.53;;;24.35;38.52
30935;BME280;51033;42.648;23.292;2023-07-31T12:09:18;93528.34;;;24.40;38.88
30935;BME280;51033;42.648;23.292;2023-07-31T12:11:45;93508.28;;;24.30;39.50
30935;BME280;51033;42.648;23.292;2023-07-31T12:14:20;93521.06;;;24.33;37.88
30935;BME280;51033;42.648;23.292;2023-07-31T12:16:54;93509.09;;;24.27;37.71
30935;BME280;51033;42.648;23.292;2023-07-31T12:19:21;93514.16;;;24.29;38.73
30935;BME280;51033;42.648;23.292;2023-07-31T12:21:46;93482.06;;;24.17;39.77
30935;BME280;51033;42.648;23.292;2023-07-31T12:24:11;93508.59;;;24.36;39.84
30935;BME280;51033;42.648;23.292;2023-07-31T12:26:37;93508.78;;;24.52;39.25
30935;BME280;51033;42.648;23.292;2023-07-31T12:29:07;93503.88;;;24.70;38.56
30935;BME280;51033;42.648;23.292;2023-07-31T12:31:33;93511.16;;;24.80;39.37
30935;BME280;51033;42.648;23.292;2023-07-31T12:33:59;93502.34;;;24.69;38.77
30935;BME280;51033;42.648;23.292;2023-07-31T12:36:25;93513.66;;;24.64;38.53
30935;BME280;51033;42.648;23.292;2023-07-31T12:38:51;93511.41;;;24.59;38.69
30935;BME280;51033;42.648;23.292;2023-07-31T12:41:17;93510.81;;;24.44;38.66
30935;BME280;51033;42.648;23.292;2023-07-31T12:43:43;93502.91;;;24.27;38.95
30935;BME280;51033;42.648;23.292;2023-07-31T12:46:15;93502.13;;;24.26;39.05
30935;BME280;51033;42.648;23.292;2023-07-31T12:48:42;93499.91;;;24.18;37.67
30935;BME280;51033;42.648;23.292;2023-07-31T12:51:07;93515.31;;;24.28;38.78
30935;BME280;51033;42.648;23.292;2023-07-31T12:53:33;93505.88;;;24.36;37.98
30935;BME280;51033;42.648;23.292;2023-07-31T12:55:59;93488.34;;;24.44;38.10
30935;BME280;51033;42.648;23.292;2023-07-31T12:58:24;93490.47;;;24.56;38.76